Time;durP1;ratioP1;P1;durP2;ratioP2;P2;SDS_P1;SDS_P2;PMS_P1;PMS_P2;Temp;Humidity;BMP_temperature;BMP_pressure;BME280_temperature;BME280_humidity;BME280_pressure;Samples;Min_cycle;Max_cycle;Signal;HPM_P1;HPM_P2
2022/01/13 00:00:42;;;;;;;32.80;18.75;;;-2.00;99.90;;;;;;1802661;79;21201;-77
2022/01/13 00:03:09;;;;;;;28.07;18.55;;;-2.10;99.90;;;;;;1804636;78;21509;-76
2022/01/13 00:05:36;;;;;;;25.92;18.32;;;-2.10;99.90;;;;;;1805847;79;21497;-76
2022/01/13 00:08:04;;;;;;;30.48;18.95;;;-2.00;99.90;;;;;;1802182;78;21544;-76
2022/01/13 00:10:31;;;;;;;24.05;17.42;;;-1.90;99.90;;;;;;1804253;78;21098;-79
2022/01/13 00:13:07;;;;;;;29.32;19.00;;;-1.90;99.90;;;;;;1805032;79;21181;-77
2022/01/13 00:16:24;;;;;;;26.48;18.52;;;-1.80;99.90;;;;;;1804433;79;21544;-76
2022/01/13 00:18:39;;;;;;;28.98;18.95;;;-1.80;99.90;;;;;;1739566;81;21130;-78
2022/01/13 00:23:45;;;;;;;27.95;17.85;;;-1.70;99.90;;;;;;1749285;82;21125;-76
2022/01/13 00:26:19;;;;;;;29.32;19.00;;;-1.70;99.90;;;;;;1742762;82;21091;-77
2022/01/13 00:28:45;;;;;;;27.85;19.30;;;-1.80;99.90;;;;;;1747912;82;21185;-77
2022/01/13 00:31:12;;;;;;;31.90;19.60;;;-1.80;99.90;;;;;;1743130;81;21192;-76
2022/01/13 00:33:44;;;;;;;25.92;17.98;;;-1.80;99.90;;;;;;1751199;82;21144;-76
2022/01/13 00:36:10;;;;;;;32.20;19.67;;;-1.90;99.90;;;;;;1745947;81;21154;-77
2022/01/13 00:38:37;;;;;;;38.10;19.15;;;-1.90;99.90;;;;;;1747411;81;21118;-77
2022/01/13 00:41:05;;;;;;;36.03;20.00;;;-1.80;99.90;;;;;;1745000;81;21168;-75
2022/01/13 00:43:36;;;;;;;26.20;18.77;;;-1.80;99.90;;;;;;1748425;81;21504;-76
2022/01/13 00:46:01;;;;;;;33.45;20.12;;;-1.80;99.90;;;;;;1749962;81;21172;-77
2022/01/13 00:48:28;;;;;;;38.80;21.00;;;-1.80;99.90;;;;;;1749868;81;21113;-77
2022/01/13 00:50:56;;;;;;;28.40;20.00;;;-1.80;99.90;;;;;;1741519;81;21108;-77
2022/01/13 00:53:23;;;;;;;29.92;19.40;;;-1.80;99.90;;;;;;1737765;81;21170;-75
2022/01/13 00:56:00;;;;;;;37.50;19.57;;;-1.80;99.90;;;;;;1741670;81;21178;-75
2022/01/13 00:58:31;;;;;;;28.47;19.15;;;-1.60;99.90;;;;;;1751225;81;21191;-75
2022/01/13 01:00:59;;;;;;;28.67;18.92;;;-1.50;99.90;;;;;;1748920;81;21118;-76
2022/01/13 01:03:27;;;;;;;21.57;18.00;;;-1.50;99.90;;;;;;1738787;81;21177;-77
2022/01/13 01:05:54;;;;;;;33.53;19.75;;;-1.50;99.90;;;;;;1741330;81;21104;-76
2022/01/13 01:08:22;;;;;;;33.78;21.48;;;-1.40;99.90;;;;;;1737941;81;21170;-77
2022/01/13 01:10:50;;;;;;;28.27;20.32;;;-1.30;99.90;;;;;;1746503;81;21082;-74
2022/01/13 01:13:21;;;;;;;29.20;20.75;;;-1.30;99.90;;;;;;1748549;81;21200;-77
2022/01/13 01:15:51;;;;;;;31.17;20.85;;;-1.40;99.90;;;;;;1741773;81;21256;-76
2022/01/13 01:18:34;;;;;;;32.65;22.10;;;-1.30;99.90;;;;;;1750126;81;21098;-74
2022/01/13 01:26:27;;;;;;;34.00;21.62;;;-1.40;99.90;;;;;;1743936;81;21588;-74
2022/01/13 01:29:37;;;;;;;29.12;20.48;;;-1.50;99.90;;;;;;1749722;81;21126;-74
2022/01/13 01:31:28;;;;;;;38.15;23.25;;;-1.40;99.90;;;;;;1744565;81;21130;-76
2022/01/13 01:34:02;;;;;;;32.25;21.60;;;-1.50;99.90;;;;;;1739014;81;21197;-76
2022/01/13 01:36:21;;;;;;;40.00;23.25;;;-1.50;99.90;;;;;;1736994;81;21084;-76
2022/01/13 01:38:52;;;;;;;33.90;21.37;;;-1.50;99.90;;;;;;1741585;81;21186;-76
2022/01/13 01:41:18;;;;;;;35.75;22.00;;;-1.50;99.90;;;;;;1747585;81;21447;-76
2022/01/13 01:43:46;;;;;;;35.83;22.35;;;-1.50;99.90;;;;;;1745872;81;21116;-74
2022/01/13 01:46:14;;;;;;;34.33;22.50;;;-1.50;99.90;;;;;;1737674;81;21120;-75
2022/01/13 01:48:41;;;;;;;32.05;21.75;;;-1.50;99.90;;;;;;1738838;81;21120;-76
2022/01/13 01:51:09;;;;;;;35.50;21.45;;;-1.40;99.90;;;;;;1742097;81;21179;-75
2022/01/13 01:53:36;;;;;;;34.38;23.05;;;-1.50;99.90;;;;;;1743310;81;21077;-76
2022/01/13 01:56:03;;;;;;;33.15;21.50;;;-1.50;99.90;;;;;;1742695;81;21190;-76
2022/01/13 01:58:31;;;;;;;38.02;22.27;;;-1.50;99.90;;;;;;1740932;81;21108;-75
2022/01/13 02:00:58;;;;;;;35.75;22.45;;;-1.50;99.90;;;;;;1746758;81;21607;-75
2022/01/13 02:03:26;;;;;;;36.85;22.73;;;-1.50;99.90;;;;;;1751310;81;21156;-76
2022/01/13 02:05:54;;;;;;;35.50;22.15;;;-1.40;99.90;;;;;;1743008;81;21120;-76
2022/01/13 02:08:21;;;;;;;38.00;22.73;;;-1.50;99.90;;;;;;1748683;81;21082;-75
2022/01/13 02:10:48;;;;;;;35.85;21.20;;;-1.50;99.90;;;;;;1744375;81;21175;-75
2022/01/13 02:13:22;;;;;;;44.35;22.93;;;-1.60;99.90;;;;;;1742508;81;21145;-76
2022/01/13 02:18:26;;;;;;;45.45;22.02;;;-1.50;99.90;;;;;;1728469;82;21122;-75
2022/01/13 02:20:54;;;;;;;32.55;21.15;;;-1.60;99.90;;;;;;1730664;82;21131;-74
2022/01/13 02:23:31;;;;;;;41.42;24.37;;;-1.60;99.90;;;;;;1744173;82;21188;-76
2022/01/13 02:25:58;;;;;;;35.98;23.65;;;-1.60;99.90;;;;;;1744021;81;21548;-76
2022/01/13 02:28:25;;;;;;;38.50;23.67;;;-1.60;99.90;;;;;;1746345;81;21113;-76
2022/01/13 02:30:53;;;;;;;40.20;25.02;;;-1.60;99.90;;;;;;1743850;81;21117;-75
2022/01/13 02:33:22;;;;;;;33.45;23.40;;;-1.50;99.90;;;;;;1738144;81;21230;-76
2022/01/13 02:35:49;;;;;;;32.45;21.77;;;-1.50;99.90;;;;;;1744916;81;21121;-76
2022/01/13 02:38:16;;;;;;;33.58;23.62;;;-1.40;99.90;;;;;;1739044;81;21110;-76
2022/01/13 02:40:44;;;;;;;35.48;22.58;;;-1.50;99.90;;;;;;1743769;81;21238;-76
2022/01/13 02:43:11;;;;;;;35.88;23.30;;;-1.60;99.90;;;;;;1747493;81;21187;-76
2022/01/13 02:45:51;;;;;;;36.58;24.32;;;-1.70;99.90;;;;;;1745771;81;21188;-75
2022/01/13 02:48:26;;;;;;;37.70;23.32;;;-1.70;99.90;;;;;;1687633;84;21141;-77
2022/01/13 02:50:40;;;;;;;39.33;23.62;;;-1.70;99.90;;;;;;1684333;83;21550;-77
2022/01/13 02:53:09;;;;;;;36.03;22.70;;;-1.70;99.90;;;;;;1721095;83;21129;-76
2022/01/13 02:55:36;;;;;;;35.20;22.95;;;-1.60;99.90;;;;;;1717213;83;21508;-76
2022/01/13 02:58:04;;;;;;;38.28;23.00;;;-1.60;99.90;;;;;;1726197;83;21126;-76
2022/01/13 03:00:31;;;;;;;36.35;21.35;;;-1.60;99.90;;;;;;1719055;82;21122;-75
2022/01/13 03:03:00;;;;;;;29.75;20.52;;;-1.50;99.90;;;;;;1748000;82;21201;-75
2022/01/13 03:05:28;;;;;;;30.17;20.20;;;-1.60;99.90;;;;;;1744911;81;21467;-75
2022/01/13 03:07:55;;;;;;;30.90;20.82;;;-1.50;99.90;;;;;;1744891;82;21180;-75
2022/01/13 03:10:22;;;;;;;38.25;20.88;;;-1.50;99.90;;;;;;1745474;81;21522;-76
2022/01/13 03:12:50;;;;;;;37.28;21.75;;;-1.60;99.90;;;;;;1746665;81;21117;-76
2022/01/13 03:15:17;;;;;;;30.50;20.17;;;-1.70;99.90;;;;;;1705687;83;21121;-75
2022/01/13 03:17:45;;;;;;;35.60;23.32;;;-1.60;99.90;;;;;;1738162;81;21471;-74
2022/01/13 03:20:12;;;;;;;35.20;22.20;;;-1.60;99.90;;;;;;1748712;81;21114;-75
2022/01/13 03:22:41;;;;;;;34.78;22.37;;;-1.60;99.90;;;;;;1745076;81;21084;-75
2022/01/13 03:25:09;;;;;;;32.88;20.57;;;-1.60;99.90;;;;;;1745195;81;21108;-75
2022/01/13 03:27:37;;;;;;;37.38;22.30;;;-1.60;99.90;;;;;;1743910;81;21125;-76
2022/01/13 03:30:07;;;;;;;35.23;23.35;;;-1.50;99.90;;;;;;1746359;81;21196;-75
2022/01/13 03:32:36;;;;;;;33.78;21.87;;;-1.60;99.90;;;;;;1748175;81;21147;-76
2022/01/13 03:35:04;;;;;;;31.60;21.10;;;-1.50;99.90;;;;;;1747190;81;21115;-76
2022/01/13 03:37:32;;;;;;;31.17;20.48;;;-1.50;99.90;;;;;;1752269;81;21122;-75
2022/01/13 03:39:59;;;;;;;33.83;21.10;;;-1.50;99.90;;;;;;1747117;81;21113;-75
2022/01/13 03:42:27;;;;;;;41.18;20.82;;;-1.50;99.90;;;;;;1749273;81;21475;-75
2022/01/13 03:44:54;;;;;;;28.38;20.17;;;-1.50;99.90;;;;;;1744784;82;21114;-75
2022/01/13 03:47:22;;;;;;;32.13;19.45;;;-1.50;99.90;;;;;;1744076;81;21112;-76
2022/01/13 03:49:50;;;;;;;34.38;19.95;;;-1.50;99.90;;;;;;1748148;81;21152;-76
2022/01/13 03:52:26;;;;;;;36.73;20.57;;;-1.50;99.90;;;;;;1743722;81;21116;-76
2022/01/13 03:55:06;;;;;;;35.83;19.73;;;-1.50;99.90;;;;;;1751701;82;21087;-75
2022/01/13 03:58:10;;;;;;;30.70;19.37;;;-1.50;99.90;;;;;;1745658;82;21082;-75
2022/01/13 04:01:06;;;;;;;34.83;20.85;;;-1.50;99.90;;;;;;1743856;81;21116;-76
2022/01/13 04:03:33;;;;;;;29.92;19.80;;;-1.50;99.90;;;;;;1672746;82;21176;-76
2022/01/13 04:06:04;;;;;;;36.80;21.70;;;-1.50;99.90;;;;;;1744794;82;21240;-74
2022/01/13 04:08:32;;;;;;;41.13;20.85;;;-1.50;99.90;;;;;;1742473;81;21174;-76
2022/01/13 04:11:08;;;;;;;30.85;20.20;;;-1.50;99.90;;;;;;1746448;81;21122;-75
2022/01/13 04:13:50;;;;;;;30.32;20.32;;;-1.60;99.90;;;;;;1744734;82;21102;-75
2022/01/13 04:16:17;;;;;;;33.08;20.62;;;-1.60;99.90;;;;;;1746234;81;21127;-75
2022/01/13 04:18:46;;;;;;;29.30;20.23;;;-1.60;99.90;;;;;;1747107;81;21162;-73
2022/01/13 04:21:13;;;;;;;27.65;18.62;;;-1.60;99.90;;;;;;1713844;81;21133;-75
2022/01/13 04:23:41;;;;;;;32.88;20.02;;;-1.60;99.90;;;;;;1745320;81;21182;-75
2022/01/13 04:26:09;;;;;;;34.85;21.33;;;-1.70;99.90;;;;;;1745390;81;21122;-75
2022/01/13 04:28:37;;;;;;;41.25;21.55;;;-1.70;99.90;;;;;;1744644;81;21208;-76
2022/01/13 04:31:04;;;;;;;39.08;19.98;;;-1.70;99.90;;;;;;1744824;81;21615;-75
2022/01/13 04:33:33;;;;;;;33.70;19.90;;;-1.60;99.90;;;;;;1750882;81;21196;-75
2022/01/13 04:36:01;;;;;;;30.20;19.85;;;-1.70;99.90;;;;;;1751630;82;21152;-74
2022/01/13 04:38:28;;;;;;;30.05;19.30;;;-1.60;99.90;;;;;;1711505;82;21094;-74
2022/01/13 04:40:58;;;;;;;36.55;21.95;;;-1.70;99.90;;;;;;1745719;82;21568;-75
2022/01/13 04:43:25;;;;;;;31.55;20.62;;;-1.70;99.90;;;;;;1750445;81;21129;-75
2022/01/13 04:45:52;;;;;;;33.85;20.62;;;-1.60;99.90;;;;;;1744812;81;21122;-75
2022/01/13 04:48:20;;;;;;;29.05;20.17;;;-1.60;99.90;;;;;;1747806;81;21086;-75
2022/01/13 04:50:47;;;;;;;31.10;20.40;;;-1.60;99.90;;;;;;1747328;82;21193;-75
2022/01/13 04:53:15;;;;;;;40.40;23.12;;;-1.60;99.90;;;;;;1743750;81;21204;-75
2022/01/13 04:55:50;;;;;;;38.45;22.48;;;-1.60;99.90;;;;;;1752486;81;21086;-75
2022/01/13 04:58:11;;;;;;;34.75;22.07;;;-1.60;99.90;;;;;;1745091;81;21113;-75
2022/01/13 05:00:38;;;;;;;30.88;20.75;;;-1.60;99.90;;;;;;1744912;82;21540;-75
2022/01/13 05:03:05;;;;;;;28.30;20.27;;;-1.60;99.90;;;;;;1753525;81;21156;-76
2022/01/13 05:05:33;;;;;;;30.90;20.45;;;-1.60;99.90;;;;;;1760773;81;21466;-75
2022/01/13 05:08:00;;;;;;;33.05;20.00;;;-1.60;99.90;;;;;;1752803;81;21173;-75
2022/01/13 05:10:27;;;;;;;31.95;21.12;;;-1.60;99.90;;;;;;1744721;81;21581;-77
2022/01/13 05:12:56;;;;;;;38.08;21.55;;;-1.60;99.90;;;;;;1743838;81;21121;-76
2022/01/13 05:15:26;;;;;;;28.20;20.48;;;-1.60;99.90;;;;;;1744289;81;21171;-76
2022/01/13 05:20:38;;;;;;;35.75;19.92;;;-1.60;99.90;;;;;;1750494;81;21439;-75
2022/01/13 05:22:54;;;;;;;30.43;20.40;;;-1.60;99.90;;;;;;1748092;81;21123;-76
2022/01/13 05:25:22;;;;;;;41.50;21.12;;;-1.60;99.90;;;;;;1743892;81;21122;-75
2022/01/13 05:27:51;;;;;;;30.05;19.60;;;-1.60;99.90;;;;;;1744775;82;21077;-76
2022/01/13 05:30:19;;;;;;;34.67;19.95;;;-1.60;99.90;;;;;;1748452;81;21175;-75
2022/01/13 05:32:46;;;;;;;32.23;20.72;;;-1.60;99.90;;;;;;1746901;81;21160;-76
2022/01/13 05:35:15;;;;;;;34.50;20.80;;;-1.60;99.90;;;;;;1744023;82;21109;-75
2022/01/13 05:37:44;;;;;;;28.17;19.77;;;-1.50;99.90;;;;;;1744109;81;21180;-75
2022/01/13 05:40:14;;;;;;;35.03;21.57;;;-1.60;99.90;;;;;;1746228;81;21195;-76
2022/01/13 05:42:42;;;;;;;35.52;19.52;;;-1.60;99.90;;;;;;1751661;81;21509;-75
2022/01/13 05:45:15;;;;;;;31.73;20.15;;;-1.50;99.90;;;;;;1742563;81;21124;-76
2022/01/13 05:47:38;;;;;;;29.23;20.00;;;-1.60;99.90;;;;;;1744070;82;21106;-75
2022/01/13 05:50:06;;;;;;;32.95;20.68;;;-1.60;99.90;;;;;;1747312;81;21187;-75
2022/01/13 05:52:33;;;;;;;28.77;19.23;;;-1.60;99.90;;;;;;1745408;81;21117;-75
2022/01/13 05:55:02;;;;;;;30.23;20.27;;;-1.60;99.90;;;;;;1754912;81;21445;-75
2022/01/13 05:57:30;;;;;;;35.10;21.02;;;-1.50;99.90;;;;;;1748583;82;21164;-75
2022/01/13 05:59:57;;;;;;;30.23;19.42;;;-1.50;99.90;;;;;;1743941;81;21118;-75
2022/01/13 06:02:25;;;;;;;28.90;19.98;;;-1.60;99.90;;;;;;1749374;82;21561;-75
2022/01/13 06:04:52;;;;;;;30.27;20.85;;;-1.60;99.90;;;;;;1745640;81;21196;-75
2022/01/13 06:07:19;;;;;;;34.48;20.50;;;-1.50;99.90;;;;;;1751641;81;21112;-75
2022/01/13 06:09:47;;;;;;;30.15;19.40;;;-1.50;99.90;;;;;;1750100;81;21183;-77
2022/01/13 06:12:16;;;;;;;28.75;20.05;;;-1.50;99.90;;;;;;1749244;82;21117;-76
2022/01/13 06:14:43;;;;;;;29.37;19.87;;;-1.60;99.90;;;;;;1748613;81;21084;-76
2022/01/13 06:17:11;;;;;;;42.05;21.27;;;-1.60;99.90;;;;;;1750013;81;21112;-76
2022/01/13 06:19:39;;;;;;;32.30;21.07;;;-1.50;99.90;;;;;;1755951;82;21099;-73
2022/01/13 06:22:07;;;;;;;27.52;20.40;;;-1.60;99.90;;;;;;1744599;81;21074;-74
2022/01/13 06:24:34;;;;;;;29.18;20.50;;;-1.60;99.90;;;;;;1745182;81;21193;-73
2022/01/13 06:27:01;;;;;;;42.73;22.02;;;-1.60;99.90;;;;;;1751424;81;21129;-73
2022/01/13 06:29:28;;;;;;;40.48;22.10;;;-1.60;99.90;;;;;;1746471;81;21104;-73
2022/01/13 06:31:56;;;;;;;31.68;20.60;;;-1.70;99.90;;;;;;1744246;81;21475;-73
2022/01/13 06:34:24;;;;;;;36.08;20.27;;;-1.60;99.90;;;;;;1743797;81;21538;-75
2022/01/13 06:36:51;;;;;;;29.85;20.08;;;-1.60;99.90;;;;;;1746285;81;21129;-77
2022/01/13 06:39:19;;;;;;;30.05;20.52;;;-1.70;99.90;;;;;;1744588;81;21091;-75
2022/01/13 06:41:46;;;;;;;33.23;20.57;;;-1.70;99.90;;;;;;1745244;82;21774;-78
2022/01/13 06:44:14;;;;;;;29.52;18.95;;;-1.70;99.90;;;;;;1744329;82;21540;-77
2022/01/13 06:46:41;;;;;;;34.85;19.75;;;-1.70;99.90;;;;;;1747996;81;21113;-76
2022/01/13 06:49:09;;;;;;;39.50;21.93;;;-1.70;99.90;;;;;;1749937;81;21180;-78
2022/01/13 06:51:36;;;;;;;28.52;19.73;;;-1.80;99.90;;;;;;1746660;81;21192;-78
2022/01/13 06:54:03;;;;;;;28.65;19.67;;;-1.70;99.90;;;;;;1743068;81;21188;-78
2022/01/13 06:56:31;;;;;;;42.60;22.42;;;-1.70;99.90;;;;;;1744725;82;21416;-78
2022/01/13 06:58:59;;;;;;;32.13;21.10;;;-1.80;99.90;;;;;;1744643;82;21491;-78
2022/01/13 07:01:26;;;;;;;31.82;20.75;;;-1.70;99.90;;;;;;1747199;81;21250;-78
2022/01/13 07:03:55;;;;;;;42.25;21.23;;;-1.80;99.90;;;;;;1745953;81;21186;-77
2022/01/13 07:06:22;;;;;;;31.10;20.30;;;-1.80;99.90;;;;;;1748038;81;21094;-78
2022/01/13 07:08:49;;;;;;;33.78;21.07;;;-1.80;99.90;;;;;;1741498;81;21251;-76
2022/01/13 07:11:16;;;;;;;34.33;19.80;;;-1.80;99.90;;;;;;1743640;81;21124;-78
2022/01/13 07:13:44;;;;;;;36.20;21.15;;;-1.80;99.90;;;;;;1742403;81;21117;-75
2022/01/13 07:16:11;;;;;;;39.55;20.48;;;-1.70;99.90;;;;;;1753290;82;21132;-79
2022/01/13 07:18:41;;;;;;;32.63;20.60;;;-1.80;99.90;;;;;;1743591;81;21109;-79
2022/01/13 07:21:11;;;;;;;29.52;18.95;;;-1.80;99.90;;;;;;1744967;82;21168;-77
2022/01/13 07:23:38;;;;;;;30.50;20.55;;;-1.90;99.90;;;;;;1747162;81;21509;-78
2022/01/13 07:26:05;;;;;;;30.27;19.73;;;-1.80;99.90;;;;;;1756325;81;21236;-79
2022/01/13 07:28:32;;;;;;;38.25;21.75;;;-1.90;99.90;;;;;;1743945;81;21509;-79
2022/01/13 07:31:00;;;;;;;42.05;23.47;;;-1.90;99.90;;;;;;1742739;81;21108;-78
2022/01/13 07:33:28;;;;;;;33.67;21.62;;;-1.90;99.90;;;;;;1746727;81;21596;-79
2022/01/13 07:35:55;;;;;;;29.85;19.50;;;-1.90;99.90;;;;;;1746001;81;21529;-78
2022/01/13 07:38:24;;;;;;;29.20;19.27;;;-1.90;99.90;;;;;;1745557;81;21500;-79
2022/01/13 07:40:52;;;;;;;31.57;19.20;;;-1.80;99.90;;;;;;1744706;81;21125;-78
2022/01/13 07:43:23;;;;;;;36.50;20.68;;;-1.70;99.90;;;;;;1748463;81;21587;-79
2022/01/13 07:45:49;;;;;;;35.63;20.20;;;-1.60;99.90;;;;;;1746145;81;21133;-78
2022/01/13 07:48:16;;;;;;;33.45;20.40;;;-1.70;99.90;;;;;;1750773;81;21116;-78
2022/01/13 07:50:44;;;;;;;31.50;19.37;;;-1.70;99.90;;;;;;1745334;82;21082;-77
2022/01/13 07:53:12;;;;;;;43.17;20.00;;;-1.70;99.90;;;;;;1744883;82;21079;-78
2022/01/13 07:55:40;;;;;;;35.10;20.50;;;-1.70;99.90;;;;;;1743629;81;21167;-78
2022/01/13 07:58:07;;;;;;;29.50;18.15;;;-1.50;99.90;;;;;;1744756;82;21124;-79
2022/01/13 08:00:34;;;;;;;31.40;20.12;;;-1.40;99.90;;;;;;1753493;81;21191;-79
2022/01/13 08:03:02;;;;;;;40.35;21.48;;;-1.50;99.90;;;;;;1744508;81;21091;-79
2022/01/13 08:05:29;;;;;;;38.45;21.37;;;-1.60;99.90;;;;;;1744459;81;21069;-78
2022/01/13 08:07:56;;;;;;;45.35;22.85;;;-1.70;99.90;;;;;;1744683;82;21066;-78
2022/01/13 08:10:24;;;;;;;37.78;23.07;;;-1.70;99.90;;;;;;1748782;81;21579;-78
2022/01/13 08:12:51;;;;;;;29.37;19.50;;;-1.70;99.90;;;;;;1749961;81;21125;-77
2022/01/13 08:15:18;;;;;;;33.98;19.67;;;-1.70;99.90;;;;;;1750552;81;21578;-78
2022/01/13 08:20:34;;;;;;;31.23;18.60;;;-1.50;99.90;;;;;;1743161;81;21208;-78
2022/01/13 08:23:01;;;;;;;34.90;19.55;;;-1.50;99.90;;;;;;1755057;81;21115;-78
2022/01/13 08:25:29;;;;;;;32.93;20.82;;;-1.60;99.90;;;;;;1744913;82;21070;-78
2022/01/13 08:27:56;;;;;;;38.15;19.73;;;-1.50;99.90;;;;;;1743786;81;21245;-78
2022/01/13 08:30:23;;;;;;;31.45;19.57;;;-1.50;99.90;;;;;;1750172;81;21529;-78
2022/01/13 08:32:51;;;;;;;31.85;19.25;;;-1.50;99.90;;;;;;1753185;81;21117;-78
2022/01/13 08:35:18;;;;;;;46.60;21.10;;;-1.40;99.90;;;;;;1745408;81;21109;-78
2022/01/13 08:37:45;;;;;;;36.17;19.27;;;-1.50;99.90;;;;;;1744767;81;21081;-77
2022/01/13 08:40:13;;;;;;;26.33;18.00;;;-1.50;99.90;;;;;;1745229;81;21113;-78
2022/01/13 08:42:41;;;;;;;25.00;17.35;;;-1.40;99.90;;;;;;1745340;81;21119;-78
2022/01/13 08:45:09;;;;;;;28.75;19.77;;;-1.40;99.90;;;;;;1751450;81;21203;-78
2022/01/13 08:47:36;;;;;;;29.95;20.52;;;-1.40;99.90;;;;;;1749253;81;21191;-77
2022/01/13 08:50:06;;;;;;;30.90;19.55;;;-1.30;99.90;;;;;;1744801;82;21148;-78
2022/01/13 08:52:35;;;;;;;36.93;22.73;;;-1.30;99.90;;;;;;1746517;81;21094;-77
2022/01/13 08:55:02;;;;;;;31.85;20.20;;;-1.30;99.90;;;;;;1743805;81;21563;-78
2022/01/13 08:57:29;;;;;;;29.23;18.57;;;-1.30;99.90;;;;;;1744863;82;21176;-78
2022/01/13 08:59:57;;;;;;;26.25;19.07;;;-1.20;99.90;;;;;;1743914;81;21146;-79
2022/01/13 09:02:25;;;;;;;30.05;18.73;;;-1.10;99.90;;;;;;1748703;81;21113;-78
2022/01/13 09:04:53;;;;;;;31.27;19.05;;;-1.20;99.90;;;;;;1743145;81;21121;-78
2022/01/13 09:07:20;;;;;;;34.20;19.35;;;-1.10;99.90;;;;;;1743152;81;21093;-78
2022/01/13 09:09:47;;;;;;;40.80;19.02;;;-1.10;99.90;;;;;;1746135;81;21157;-79
2022/01/13 09:12:16;;;;;;;30.00;19.87;;;-1.00;99.90;;;;;;1744442;81;21147;-78
2022/01/13 09:14:44;;;;;;;32.25;20.02;;;-0.80;99.90;;;;;;1758223;82;21097;-78
2022/01/13 09:17:20;;;;;;;34.27;18.95;;;-0.80;99.90;;;;;;1729634;82;21102;-76
2022/01/13 09:19:42;;;;;;;30.00;18.40;;;-0.60;99.90;;;;;;1739680;81;21121;-79
2022/01/13 09:22:09;;;;;;;35.92;18.75;;;-0.70;99.90;;;;;;1746394;81;21611;-80
2022/01/13 09:24:37;;;;;;;28.80;18.65;;;-0.70;99.90;;;;;;1748313;81;21385;-80
2022/01/13 09:27:05;;;;;;;31.55;19.12;;;-0.70;99.90;;;;;;1744896;82;21153;-78
2022/01/13 09:29:32;;;;;;;27.02;18.55;;;-0.60;99.90;;;;;;1748055;81;21195;-80
2022/01/13 09:31:59;;;;;;;29.98;19.40;;;-0.50;99.90;;;;;;1745826;82;21121;-81
2022/01/13 09:34:27;;;;;;;27.93;18.75;;;-0.50;99.90;;;;;;1746572;81;21188;-80
2022/01/13 09:36:55;;;;;;;31.05;18.98;;;-0.30;99.90;;;;;;1745052;82;21082;-80
2022/01/13 09:39:22;;;;;;;27.22;17.77;;;-0.10;99.90;;;;;;1748321;81;21086;-81
2022/01/13 09:41:49;;;;;;;29.23;18.73;;;0.10;99.90;;;;;;1749576;81;21210;-80
2022/01/13 09:44:17;;;;;;;27.20;17.55;;;0.40;99.90;;;;;;1751738;82;21445;-79
2022/01/13 09:46:45;;;;;;;27.10;17.40;;;0.70;99.90;;;;;;1743991;81;21111;-80
2022/01/13 09:49:12;;;;;;;30.80;17.80;;;1.10;99.90;;;;;;1746159;81;21208;-80
2022/01/13 09:51:44;;;;;;;28.25;18.30;;;1.30;99.90;;;;;;1744776;81;21108;-80
2022/01/13 09:54:09;;;;;;;26.05;17.27;;;1.70;99.90;;;;;;1754243;81;21161;-80
2022/01/13 09:56:36;;;;;;;34.88;16.93;;;1.30;99.90;;;;;;1745291;81;21112;-80
2022/01/13 09:59:03;;;;;;;25.27;17.67;;;1.60;99.90;;;;;;1746656;81;21217;-80
2022/01/13 10:01:31;;;;;;;31.07;18.27;;;2.20;99.90;;;;;;1726000;82;21120;-77
2022/01/13 10:03:58;;;;;;;29.30;18.15;;;2.30;99.90;;;;;;1744787;81;21256;-76
2022/01/13 10:06:25;;;;;;;44.53;24.75;;;2.20;99.90;;;;;;1749078;81;21118;-76
2022/01/13 10:09:00;;;;;;;51.98;26.25;;;2.30;99.90;;;;;;1750367;82;21521;-77
2022/01/13 10:11:40;;;;;;;28.38;16.45;;;2.50;99.90;;;;;;1745680;81;21216;-81
2022/01/13 10:16:59;;;;;;;27.22;18.00;;;2.40;99.90;;;;;;1753098;82;21063;-79
2022/01/13 10:19:36;;;;;;;25.75;17.23;;;2.10;99.90;;;;;;1747931;81;21180;-80
2022/01/13 10:22:11;;;;;;;27.22;17.17;;;2.60;99.90;;;;;;1727604;81;21206;-79
2022/01/13 10:24:43;;;;;;;25.75;17.32;;;2.40;99.90;;;;;;1749548;82;21067;-80
2022/01/13 10:27:16;;;;;;;28.75;18.42;;;2.60;99.90;;;;;;1744615;81;21113;-80
2022/01/13 10:29:46;;;;;;;25.60;17.32;;;2.70;99.90;;;;;;1750651;81;21106;-80
2022/01/13 10:32:25;;;;;;;26.40;16.40;;;3.20;99.90;;;;;;1759146;82;21054;-79
2022/01/13 10:35:01;;;;;;;22.87;16.57;;;3.10;99.90;;;;;;1752206;82;21043;-80
2022/01/13 10:37:43;;;;;;;34.18;17.07;;;3.40;99.90;;;;;;1745358;82;21110;-79
2022/01/13 10:40:18;;;;;;;27.75;17.12;;;3.40;99.90;;;;;;1745759;81;21124;-77
2022/01/13 10:45:27;;;;;;;28.57;15.98;;;4.50;99.90;;;;;;1746133;81;21200;-80
2022/01/13 10:48:03;;;;;;;21.90;15.83;;;4.60;99.90;;;;;;1750739;81;21120;-78
2022/01/13 10:50:39;;;;;;;24.98;15.63;;;4.60;99.90;;;;;;1746152;82;21046;-77
2022/01/13 10:53:10;;;;;;;31.20;15.63;;;4.80;99.90;;;;;;1745186;82;21141;-78
2022/01/13 10:55:40;;;;;;;26.80;16.55;;;4.60;99.90;;;;;;1744233;81;21595;-78
2022/01/13 10:58:08;;;;;;;27.00;15.90;;;3.90;99.90;;;;;;1747025;81;21180;-80
2022/01/13 11:00:35;;;;;;;36.93;17.70;;;4.30;99.90;;;;;;1745612;81;21253;-79
2022/01/13 11:03:19;;;;;;;24.92;15.23;;;4.10;99.90;;;;;;1745509;82;21197;-78
2022/01/13 11:05:49;;;;;;;30.90;17.05;;;4.70;99.90;;;;;;1744137;81;21107;-78
2022/01/13 11:08:23;;;;;;;21.52;15.28;;;4.80;99.90;;;;;;1745623;81;21095;-78
2022/01/13 11:10:53;;;;;;;22.50;16.00;;;4.60;99.90;;;;;;1744235;81;21195;-79
2022/01/13 11:13:22;;;;;;;23.38;15.10;;;4.20;99.90;;;;;;1729752;82;21455;-79
2022/01/13 11:15:53;;;;;;;20.17;14.38;;;4.20;99.90;;;;;;1703666;82;21266;-80
2022/01/13 11:18:20;;;;;;;34.45;16.55;;;4.70;99.90;;;;;;1733405;82;21149;-79
2022/01/13 11:20:48;;;;;;;21.37;14.58;;;5.10;99.90;;;;;;1752501;81;21129;-79
2022/01/13 11:23:17;;;;;;;22.13;14.50;;;4.90;99.90;;;;;;1744978;81;21195;-80
2022/01/13 11:25:49;;;;;;;21.40;15.32;;;4.70;99.90;;;;;;1747101;81;21176;-81
2022/01/13 11:28:17;;;;;;;28.23;15.18;;;4.90;99.90;;;;;;1747715;81;21543;-80
2022/01/13 11:30:45;;;;;;;22.87;14.87;;;5.50;99.90;;;;;;1758772;82;21144;-80
2022/01/13 11:33:14;;;;;;;28.12;16.00;;;5.30;99.90;;;;;;1750351;81;21530;-80
2022/01/13 11:35:45;;;;;;;26.10;17.27;;;5.30;99.90;;;;;;1743975;81;21537;-81
2022/01/13 11:38:13;;;;;;;26.10;16.60;;;5.10;99.90;;;;;;1749241;81;21552;-83
2022/01/13 11:40:47;;;;;;;24.65;14.93;;;5.50;99.90;;;;;;1745195;81;21180;-84
2022/01/13 11:43:30;;;;;;;25.82;16.90;;;5.90;99.90;;;;;;1740564;81;21596;-88
2022/01/13 11:45:59;;;;;;;26.90;15.60;;;6.30;99.90;;;;;;1747703;81;21524;-81
2022/01/13 11:48:30;;;;;;;23.50;14.07;;;6.60;99.90;;;;;;1712746;83;21192;-80
2022/01/13 11:51:19;;;;;;;22.52;15.20;;;6.80;99.90;;;;;;1741901;81;21508;-75
2022/01/13 11:53:41;;;;;;;24.98;15.25;;;6.70;99.90;;;;;;1733217;82;21108;-80
2022/01/13 11:56:09;;;;;;;27.85;15.72;;;7.10;99.90;;;;;;1646046;85;21258;-81
2022/01/13 11:58:49;;;;;;;23.52;14.75;;;7.90;99.90;;;;;;1755661;80;21192;-80
2022/01/13 12:01:27;;;;;;;20.67;14.50;;;7.60;99.90;;;;;;1754622;80;21855;-79
2022/01/13 12:03:57;;;;;;;30.75;14.03;;;7.50;99.90;;;;;;1755956;80;22244;-79
2022/01/13 12:06:42;;;;;;;22.07;14.40;;;7.30;99.90;;;;;;1762053;81;21113;-76
2022/01/13 12:09:25;;;;;;;23.55;14.10;;;7.50;99.90;;;;;;1757892;81;21129;-79
2022/01/13 12:11:56;;;;;;;24.05;13.68;;;7.00;99.90;;;;;;1756461;81;21074;-82
2022/01/13 12:14:35;;;;;;;21.55;12.95;;;6.90;99.90;;;;;;1757762;81;21082;-82
2022/01/13 12:17:08;;;;;;;19.95;13.40;;;6.80;99.90;;;;;;1757979;79;21171;-81
2022/01/13 12:19:40;;;;;;;23.18;14.20;;;6.90;99.90;;;;;;1754017;81;21183;-81
2022/01/13 12:22:35;;;;;;;18.95;13.20;;;7.10;99.90;;;;;;1752165;80;21080;-79
2022/01/13 12:24:59;;;;;;;21.87;14.75;;;7.20;99.90;;;;;;1698529;81;21622;-80
2022/01/13 12:27:43;;;;;;;22.32;13.83;;;7.20;99.90;;;;;;1756511;81;21175;-80
2022/01/13 12:30:25;;;;;;;19.23;12.93;;;7.10;99.90;;;;;;1758462;80;21572;-81
2022/01/13 12:32:59;;;;;;;22.13;14.00;;;7.50;99.90;;;;;;1758875;81;21117;-81
2022/01/13 12:35:38;;;;;;;16.70;12.65;;;7.40;99.90;;;;;;1748572;80;21167;-80
2022/01/13 12:38:14;;;;;;;18.02;12.93;;;7.40;99.90;;;;;;1756064;81;21101;-82
2022/01/13 12:40:55;;;;;;;18.45;13.15;;;7.90;99.90;;;;;;1755462;81;21170;-81
2022/01/13 12:43:47;;;;;;;24.37;12.73;;;8.20;99.90;;;;;;1755605;80;21129;-81
2022/01/13 12:46:22;;;;;;;28.45;13.03;;;8.80;99.90;;;;;;1746009;81;21089;-80
2022/01/13 12:48:54;;;;;;;23.75;13.08;;;8.70;99.90;;;;;;1752785;81;21124;-78
2022/01/13 12:51:24;;;;;;;19.62;12.95;;;9.00;99.90;;;;;;1755077;81;21477;-79
2022/01/13 12:53:52;;;;;;;20.23;12.95;;;8.70;99.90;;;;;;1763666;81;21089;-79
2022/01/13 12:56:26;;;;;;;20.52;13.48;;;9.50;99.90;;;;;;1754780;81;21077;-80
2022/01/13 12:58:56;;;;;;;19.12;13.25;;;9.50;99.90;;;;;;1756954;80;21108;-79
2022/01/13 13:01:29;;;;;;;17.23;12.98;;;8.20;99.90;;;;;;1758150;81;21498;-79
2022/01/13 13:04:08;;;;;;;23.62;13.10;;;8.30;99.90;;;;;;1757311;80;21105;-79